sensor_id;sensor_type;location;lat;lon;timestamp;pressure;altitude;pressure_sealevel;temperature;humidity
41513;BME280;27244;59.940;30.280;2023-01-28T00:00:51;102386.44;;;23.70;24.55
41513;BME280;27244;59.940;30.280;2023-01-28T00:03:18;102390.47;;;23.69;24.43
41513;BME280;27244;59.940;30.280;2023-01-28T00:05:45;102389.25;;;23.63;24.35
41513;BME280;27244;59.940;30.280;2023-01-28T00:08:12;102391.25;;;23.66;24.29
41513;BME280;27244;59.940;30.280;2023-01-28T00:10:41;102386.88;;;23.65;24.20
41513;BME280;27244;59.940;30.280;2023-01-28T00:13:10;102399.31;;;23.71;24.16
41513;BME280;27244;59.940;30.280;2023-01-28T00:15:39;102397.69;;;23.70;24.17
41513;BME280;27244;59.940;30.280;2023-01-28T00:18:06;102402.53;;;23.70;24.11
41513;BME280;27244;59.940;30.280;2023-01-28T00:20:33;102398.13;;;23.69;24.24
41513;BME280;27244;59.940;30.280;2023-01-28T00:23:01;102398.94;;;23.69;23.93
41513;BME280;27244;59.940;30.280;2023-01-28T00:25:28;102387.66;;;23.69;23.95
41513;BME280;27244;59.940;30.280;2023-01-28T00:27:56;102392.50;;;23.69;23.73
41513;BME280;27244;59.940;30.280;2023-01-28T00:30:23;102392.88;;;23.67;24.01
41513;BME280;27244;59.940;30.280;2023-01-28T00:32:50;102379.22;;;23.66;23.74
41513;BME280;27244;59.940;30.280;2023-01-28T00:35:18;102371.16;;;23.64;23.87
41513;BME280;27244;59.940;30.280;2023-01-28T00:37:45;102372.78;;;23.65;23.89
41513;BME280;27244;59.940;30.280;2023-01-28T00:40:13;102375.19;;;23.63;23.85
41513;BME280;27244;59.940;30.280;2023-01-28T00:42:40;102367.94;;;23.62;23.66
41513;BME280;27244;59.940;30.280;2023-01-28T00:45:09;102373.97;;;23.64;23.51
41513;BME280;27244;59.940;30.280;2023-01-28T00:47:36;102362.31;;;23.62;23.75
41513;BME280;27244;59.940;30.280;2023-01-28T00:50:03;102360.72;;;23.61;23.62
41513;BME280;27244;59.940;30.280;2023-01-28T00:52:30;102361.09;;;23.60;23.78
41513;BME280;27244;59.940;30.280;2023-01-28T00:54:57;102367.94;;;23.59;23.55
41513;BME280;27244;59.940;30.280;2023-01-28T00:57:25;102355.88;;;23.58;23.74
41513;BME280;27244;59.940;30.280;2023-01-28T00:59:52;102349.44;;;23.58;23.68
41513;BME280;27244;59.940;30.280;2023-01-28T01:02:22;102356.66;;;23.59;23.67
41513;BME280;27244;59.940;30.280;2023-01-28T01:04:49;102345.00;;;23.57;23.71
41513;BME280;27244;59.940;30.280;2023-01-28T01:07:26;102342.19;;;23.57;23.53
41513;BME280;27244;59.940;30.280;2023-01-28T01:10:08;102343.81;;;23.58;23.65
41513;BME280;27244;59.940;30.280;2023-01-28T01:12:36;102339.00;;;23.55;23.62
41513;BME280;27244;59.940;30.280;2023-01-28T01:15:04;102344.63;;;23.55;23.52
41513;BME280;27244;59.940;30.280;2023-01-28T01:17:34;102347.03;;;23.56;23.51
41513;BME280;27244;59.940;30.280;2023-01-28T01:20:10;102349.44;;;23.58;23.23
41513;BME280;27244;59.940;30.280;2023-01-28T01:22:37;102339.78;;;23.55;23.75
41513;BME280;27244;59.940;30.280;2023-01-28T01:25:05;102344.63;;;23.55;23.59
41513;BME280;27244;59.940;30.280;2023-01-28T01:27:33;102344.63;;;23.55;23.67
41513;BME280;27244;59.940;30.280;2023-01-28T01:30:00;102330.94;;;23.53;23.54
41513;BME280;27244;59.940;30.280;2023-01-28T01:32:28;102342.19;;;23.57;23.29
41513;BME280;27244;59.940;30.280;2023-01-28T01:34:57;102336.19;;;23.55;23.45
41513;BME280;27244;59.940;30.280;2023-01-28T01:37:24;102337.38;;;23.53;23.48
41513;BME280;27244;59.940;30.280;2023-01-28T01:39:51;102328.50;;;23.51;23.52
41513;BME280;27244;59.940;30.280;2023-01-28T01:42:18;102325.69;;;23.48;23.60
41513;BME280;27244;59.940;30.280;2023-01-28T01:44:51;102319.66;;;23.53;23.55
41513;BME280;27244;59.940;30.280;2023-01-28T01:47:23;102320.06;;;23.51;23.54
41513;BME280;27244;59.940;30.280;2023-01-28T01:49:51;102318.47;;;23.50;23.37
41513;BME280;27244;59.940;30.280;2023-01-28T01:52:23;102316.84;;;23.53;23.46
41513;BME280;27244;59.940;30.280;2023-01-28T01:54:56;102315.22;;;23.52;23.05
41513;BME280;27244;59.940;30.280;2023-01-28T01:57:28;102312.03;;;23.50;23.53
41513;BME280;27244;59.940;30.280;2023-01-28T01:59:57;102303.59;;;23.50;23.38
41513;BME280;27244;59.940;30.280;2023-01-28T02:02:41;102300.75;;;23.50;23.54
41513;BME280;27244;59.940;30.280;2023-01-28T02:05:10;102301.97;;;23.49;23.51
41513;BME280;27244;59.940;30.280;2023-01-28T02:07:39;102300.75;;;23.50;23.37
41513;BME280;27244;59.940;30.280;2023-01-28T02:10:08;102306.41;;;23.50;23.33
41513;BME280;27244;59.940;30.280;2023-01-28T02:12:39;102303.97;;;23.52;23.28
41513;BME280;27244;59.940;30.280;2023-01-28T02:15:09;102300.34;;;23.51;23.23
41513;BME280;27244;59.940;30.280;2023-01-28T02:17:36;102295.94;;;23.50;23.18
41513;BME280;27244;59.940;30.280;2023-01-28T02:20:06;102287.50;;;23.43;23.39
41513;BME280;27244;59.940;30.280;2023-01-28T02:26:05;102291.50;;;23.57;23.41
41513;BME280;27244;59.940;30.280;2023-01-28T02:28:40;102283.88;;;23.50;23.34
41513;BME280;27244;59.940;30.280;2023-01-28T02:31:13;102287.50;;;23.47;23.18
41513;BME280;27244;59.940;30.280;2023-01-28T02:33:45;102284.28;;;23.45;23.27
41513;BME280;27244;59.940;30.280;2023-01-28T02:36:25;102285.88;;;23.49;23.28
41513;BME280;27244;59.940;30.280;2023-01-28T02:38:56;102282.66;;;23.40;23.44
41513;BME280;27244;59.940;30.280;2023-01-28T02:41:27;102284.22;;;23.59;23.85
41513;BME280;27244;59.940;30.280;2023-01-28T02:43:56;102287.50;;;23.43;23.17
41513;BME280;27244;59.940;30.280;2023-01-28T02:46:33;102283.88;;;23.46;23.17
41513;BME280;27244;59.940;30.280;2023-01-28T02:49:22;102273.41;;;23.40;23.21
41513;BME280;27244;59.940;30.280;2023-01-28T02:52:06;102277.81;;;23.41;23.30
41513;BME280;27244;59.940;30.280;2023-01-28T02:54:38;102286.69;;;23.43;23.36
41513;BME280;27244;59.940;30.280;2023-01-28T02:57:16;102287.91;;;23.42;23.53
41513;BME280;27244;59.940;30.280;2023-01-28T02:59:50;102282.69;;;23.44;23.45
41513;BME280;27244;59.940;30.280;2023-01-28T03:02:25;102285.09;;;23.42;23.25
41513;BME280;27244;59.940;30.280;2023-01-28T03:04:59;102273.00;;;23.38;23.26
41513;BME280;27244;59.940;30.280;2023-01-28T03:07:30;102272.19;;;23.34;23.16
41513;BME280;27244;59.940;30.280;2023-01-28T03:10:01;102275.00;;;23.41;23.21
41513;BME280;27244;59.940;30.280;2023-01-28T03:12:30;102277.81;;;23.41;23.06
41513;BME280;27244;59.940;30.280;2023-01-28T03:15:18;102266.97;;;23.36;23.28
41513;BME280;27244;59.940;30.280;2023-01-28T03:18:06;102276.22;;;23.40;23.34
41513;BME280;27244;59.940;30.280;2023-01-28T03:20:56;102274.22;;;23.40;23.47
41513;BME280;27244;59.940;30.280;2023-01-28T03:23:49;102280.25;;;23.39;23.26
41513;BME280;27244;59.940;30.280;2023-01-28T03:26:37;102272.19;;;23.51;23.58
41513;BME280;27244;59.940;30.280;2023-01-28T03:29:26;102267.38;;;23.31;23.20
41513;BME280;27244;59.940;30.280;2023-01-28T03:32:16;102272.19;;;23.34;23.40
41513;BME280;27244;59.940;30.280;2023-01-28T03:35:05;102269.00;;;23.32;23.27
41513;BME280;27244;59.940;30.280;2023-01-28T03:37:51;102271.38;;;23.30;23.46
41513;BME280;27244;59.940;30.280;2023-01-28T03:40:21;102262.94;;;23.30;23.18
41513;BME280;27244;59.940;30.280;2023-01-28T03:42:48;102254.50;;;23.30;23.36
41513;BME280;27244;59.940;30.280;2023-01-28T03:45:30;102256.13;;;23.31;23.29
41513;BME280;27244;59.940;30.280;2023-01-28T03:48:00;102242.84;;;23.28;23.21
41513;BME280;27244;59.940;30.280;2023-01-28T03:50:27;102240.03;;;23.28;23.24
41513;BME280;27244;59.940;30.280;2023-01-28T03:52:57;102244.06;;;23.27;23.30
41513;BME280;27244;59.940;30.280;2023-01-28T03:55:43;102236.03;;;23.29;23.16
41513;BME280;27244;59.940;30.280;2023-01-28T03:58:12;102234.00;;;23.29;23.14
41513;BME280;27244;59.940;30.280;2023-01-28T04:00:39;102222.34;;;23.27;23.24
41513;BME280;27244;59.940;30.280;2023-01-28T04:03:10;102227.94;;;23.31;23.04
41513;BME280;27244;59.940;30.280;2023-01-28T04:05:45;102224.75;;;23.29;23.11
41513;BME280;27244;59.940;30.280;2023-01-28T04:08:14;102225.56;;;23.29;23.03
41513;BME280;27244;59.940;30.280;2023-01-28T04:11:01;102227.56;;;23.29;23.02
41513;BME280;27244;59.940;30.280;2023-01-28T04:13:41;102218.31;;;23.25;22.84
41513;BME280;27244;59.940;30.280;2023-01-28T04:16:09;102227.56;;;23.29;22.85
41513;BME280;27244;59.940;30.280;2023-01-28T04:18:41;102216.69;;;23.27;23.00
41513;BME280;27244;59.940;30.280;2023-01-28T04:21:08;102215.91;;;23.27;22.98
41513;BME280;27244;59.940;30.280;2023-01-28T04:23:36;102212.69;;;23.25;22.84
41513;BME280;27244;59.940;30.280;2023-01-28T04:26:04;102211.91;;;23.21;22.80
41513;BME280;27244;59.940;30.280;2023-01-28T04:28:31;102219.53;;;23.24;22.91
41513;BME280;27244;59.940;30.280;2023-01-28T04:30:59;102220.72;;;23.23;22.76
41513;BME280;27244;59.940;30.280;2023-01-28T04:33:44;102218.34;;;23.21;22.93
41513;BME280;27244;59.940;30.280;2023-01-28T04:36:32;102210.28;;;23.20;22.83
41513;BME280;27244;59.940;30.280;2023-01-28T04:38:59;102211.09;;;23.24;22.79
41513;BME280;27244;59.940;30.280;2023-01-28T04:41:36;102211.91;;;23.21;22.91
41513;BME280;27244;59.940;30.280;2023-01-28T04:44:19;102221.53;;;23.23;22.74
41513;BME280;27244;59.940;30.280;2023-01-28T04:47:14;102212.72;;;23.21;22.94
41513;BME280;27244;59.940;30.280;2023-01-28T04:50:09;102217.53;;;23.24;22.75
41513;BME280;27244;59.940;30.280;2023-01-28T04:52:58;102203.06;;;23.22;22.76
41513;BME280;27244;59.940;30.280;2023-01-28T04:55:37;102202.25;;;23.22;22.71
41513;BME280;27244;59.940;30.280;2023-01-28T04:58:04;102199.03;;;23.20;22.83
41513;BME280;27244;59.940;30.280;2023-01-28T05:00:35;102182.97;;;23.10;22.77
41513;BME280;27244;59.940;30.280;2023-01-28T05:03:02;102196.22;;;23.20;22.53
41513;BME280;27244;59.940;30.280;2023-01-28T05:05:31;102195.81;;;23.21;22.79
41513;BME280;27244;59.940;30.280;2023-01-28T05:08:11;102189.78;;;23.19;22.88
41513;BME280;27244;59.940;30.280;2023-01-28T05:10:38;102187.75;;;23.20;22.76
41513;BME280;27244;59.940;30.280;2023-01-28T05:13:06;102174.13;;;23.08;22.73
41513;BME280;27244;59.940;30.280;2023-01-28T05:15:33;102178.13;;;23.17;22.96
41513;BME280;27244;59.940;30.280;2023-01-28T05:18:00;102179.75;;;23.18;22.57
41513;BME280;27244;59.940;30.280;2023-01-28T05:20:34;102173.69;;;23.20;22.54
41513;BME280;27244;59.940;30.280;2023-01-28T05:23:02;102166.44;;;23.15;22.68
41513;BME280;27244;59.940;30.280;2023-01-28T05:25:41;102164.44;;;23.16;22.48
41513;BME280;27244;59.940;30.280;2023-01-28T05:28:08;102152.81;;;23.14;22.56
41513;BME280;27244;59.940;30.280;2023-01-28T05:30:36;102164.06;;;23.17;22.64
41513;BME280;27244;59.940;30.280;2023-01-28T05:33:03;102161.63;;;23.16;22.69
41513;BME280;27244;59.940;30.280;2023-01-28T05:35:30;102167.25;;;23.16;22.61
41513;BME280;27244;59.940;30.280;2023-01-28T05:37:59;102163.25;;;23.17;22.61
41513;BME280;27244;59.940;30.280;2023-01-28T05:40:26;102160.44;;;23.13;22.53
41513;BME280;27244;59.940;30.280;2023-01-28T05:42:53;102157.63;;;23.13;22.58
41513;BME280;27244;59.940;30.280;2023-01-28T05:45:34;102151.22;;;23.05;22.63
41513;BME280;27244;59.940;30.280;2023-01-28T05:48:22;102152.00;;;23.10;22.54
41513;BME280;27244;59.940;30.280;2023-01-28T05:51:07;102148.38;;;23.13;22.74
41513;BME280;27244;59.940;30.280;2023-01-28T05:53:37;102138.75;;;23.10;22.85
41513;BME280;27244;59.940;30.280;2023-01-28T05:56:06;102155.63;;;23.14;22.49
41513;BME280;27244;59.940;30.280;2023-01-28T05:58:36;102160.03;;;23.15;22.31
41513;BME280;27244;59.940;30.280;2023-01-28T06:01:03;102152.00;;;23.10;22.54
41513;BME280;27244;59.940;30.280;2023-01-28T06:03:39;102154.00;;;23.13;22.65
41513;BME280;27244;59.940;30.280;2023-01-28T06:06:06;102141.94;;;23.09;22.47
41513;BME280;27244;59.940;30.280;2023-01-28T06:08:34;102152.00;;;23.13;22.74
41513;BME280;27244;59.940;30.280;2023-01-28T06:11:03;102154.81;;;23.13;22.51
41513;BME280;27244;59.940;30.280;2023-01-28T06:13:34;102158.03;;;23.12;22.68
41513;BME280;27244;59.940;30.280;2023-01-28T06:16:20;102155.63;;;23.10;22.63
41513;BME280;27244;59.940;30.280;2023-01-28T06:19:02;102163.25;;;23.10;22.72
41513;BME280;27244;59.940;30.280;2023-01-28T06:21:29;102165.28;;;23.09;22.76
41513;BME280;27244;59.940;30.280;2023-01-28T06:23:57;102156.44;;;23.07;22.70
41513;BME280;27244;59.940;30.280;2023-01-28T06:26:25;102163.66;;;23.04;22.41
41513;BME280;27244;59.940;30.280;2023-01-28T06:28:52;102160.06;;;23.04;22.41
41513;BME280;27244;59.940;30.280;2023-01-28T06:31:19;102165.28;;;23.05;22.57
41513;BME280;27244;59.940;30.280;2023-01-28T06:33:46;102166.09;;;23.06;22.55
41513;BME280;27244;59.940;30.280;2023-01-28T06:36:13;102158.44;;;23.07;22.27
41513;BME280;27244;59.940;30.280;2023-01-28T06:38:43;102156.84;;;23.05;22.53
41513;BME280;27244;59.940;30.280;2023-01-28T06:41:10;102152.84;;;23.03;22.41
41513;BME280;27244;59.940;30.280;2023-01-28T06:43:38;102156.44;;;23.07;22.34
41513;BME280;27244;59.940;30.280;2023-01-28T06:46:05;102157.66;;;23.06;22.57
41513;BME280;27244;59.940;30.280;2023-01-28T06:48:32;102166.91;;;23.07;22.42
41513;BME280;27244;59.940;30.280;2023-01-28T06:50:59;102160.06;;;23.04;22.41
41513;BME280;27244;59.940;30.280;2023-01-28T06:53:26;102164.47;;;23.09;22.14
41513;BME280;27244;59.940;30.280;2023-01-28T06:55:53;102166.47;;;23.08;22.43
41513;BME280;27244;59.940;30.280;2023-01-28T06:58:20;102154.81;;;23.10;22.24
41513;BME280;27244;59.940;30.280;2023-01-28T07:00:48;102150.00;;;23.10;22.22
41513;BME280;27244;59.940;30.280;2023-01-28T07:03:15;102148.00;;;23.07;22.16
41513;BME280;27244;59.940;30.280;2023-01-28T07:05:46;102145.59;;;23.05;22.17
41513;BME280;27244;59.940;30.280;2023-01-28T07:08:13;102140.75;;;23.06;22.16
41513;BME280;27244;59.940;30.280;2023-01-28T07:10:40;102140.38;;;23.04;22.32
41513;BME280;27244;59.940;30.280;2023-01-28T07:13:07;102121.88;;;22.99;23.06
41513;BME280;27244;59.940;30.280;2023-01-28T07:15:34;102117.06;;;23.03;22.45
41513;BME280;27244;59.940;30.280;2023-01-28T07:18:02;102117.88;;;23.00;22.93
41513;BME280;27244;59.940;30.280;2023-01-28T07:20:31;102121.88;;;23.03;22.99
41513;BME280;27244;59.940;30.280;2023-01-28T07:23:00;102121.88;;;23.07;23.18
41513;BME280;27244;59.940;30.280;2023-01-28T07:25:27;102117.84;;;23.08;23.14
41513;BME280;27244;59.940;30.280;2023-01-28T07:27:56;102111.41;;;23.11;23.40
41513;BME280;27244;59.940;30.280;2023-01-28T07:30:23;102107.34;;;23.12;23.61
41513;BME280;27244;59.940;30.280;2023-01-28T07:32:53;102098.50;;;23.13;23.68
41513;BME280;27244;59.940;30.280;2023-01-28T07:35:22;102104.13;;;23.17;23.94
41513;BME280;27244;59.940;30.280;2023-01-28T07:37:51;102098.50;;;23.13;24.08
41513;BME280;27244;59.940;30.280;2023-01-28T07:40:18;102102.50;;;23.19;24.22
41513;BME280;27244;59.940;30.280;2023-01-28T07:42:48;102106.53;;;23.22;24.38
41513;BME280;27244;59.940;30.280;2023-01-28T07:45:20;102091.22;;;23.23;24.59
41513;BME280;27244;59.940;30.280;2023-01-28T07:47:53;102095.63;;;23.27;24.69
41513;BME280;27244;59.940;30.280;2023-01-28T07:50:21;102100.09;;;23.25;25.02
41513;BME280;27244;59.940;30.280;2023-01-28T07:52:50;102082.00;;;23.22;25.05
41513;BME280;27244;59.940;30.280;2023-01-28T07:55:17;102078.38;;;23.22;25.16
41513;BME280;27244;59.940;30.280;2023-01-28T07:57:48;102071.97;;;23.18;31.00
41513;BME280;27244;59.940;30.280;2023-01-28T08:00:16;102076.78;;;23.21;30.20
41513;BME280;27244;59.940;30.280;2023-01-28T08:02:43;102084.38;;;23.24;29.14
41513;BME280;27244;59.940;30.280;2023-01-28T08:05:14;102086.00;;;23.25;28.38
41513;BME280;27244;59.940;30.280;2023-01-28T08:07:43;102080.34;;;23.28;28.68
41513;BME280;27244;59.940;30.280;2023-01-28T08:10:32;102084.78;;;23.29;28.41
41513;BME280;27244;59.940;30.280;2023-01-28T08:13:16;102088.34;;;23.37;28.15
41513;BME280;27244;59.940;30.280;2023-01-28T08:15:44;102077.13;;;23.30;28.71
41513;BME280;27244;59.940;30.280;2023-01-28T08:18:13;102065.84;;;23.33;28.84
41513;BME280;27244;59.940;30.280;2023-01-28T08:20:40;102063.44;;;23.35;29.27
41513;BME280;27244;59.940;30.280;2023-01-28T08:23:12;102067.44;;;23.41;29.78
41513;BME280;27244;59.940;30.280;2023-01-28T08:25:39;102068.66;;;23.44;29.51
41513;BME280;27244;59.940;30.280;2023-01-28T08:28:06;102052.16;;;23.42;29.52
41513;BME280;27244;59.940;30.280;2023-01-28T08:30:34;102054.94;;;23.46;29.51
41513;BME280;27244;59.940;30.280;2023-01-28T08:33:03;102050.50;;;23.48;29.52
41513;BME280;27244;59.940;30.280;2023-01-28T08:35:32;102042.84;;;23.49;29.30
41513;BME280;27244;59.940;30.280;2023-01-28T08:38:00;102039.63;;;23.50;29.75
41513;BME280;27244;59.940;30.280;2023-01-28T08:40:29;102033.19;;;23.50;29.63
41513;BME280;27244;59.940;30.280;2023-01-28T08:42:56;102019.91;;;23.50;29.62
41513;BME280;27244;59.940;30.280;2023-01-28T08:45:26;102018.28;;;23.53;29.59
41513;BME280;27244;59.940;30.280;2023-01-28T08:47:55;102015.09;;;23.51;29.61
41513;BME280;27244;59.940;30.280;2023-01-28T08:50:23;102021.13;;;23.49;29.80
41513;BME280;27244;59.940;30.280;2023-01-28T08:52:54;102011.88;;;23.49;29.99
41513;BME280;27244;59.940;30.280;2023-01-28T08:55:23;102005.06;;;23.46;29.93
41513;BME280;27244;59.940;30.280;2023-01-28T08:57:52;102004.25;;;23.46;30.25
41513;BME280;27244;59.940;30.280;2023-01-28T09:00:20;101997.00;;;23.45;30.42
41513;BME280;27244;59.940;30.280;2023-01-28T09:02:50;102007.06;;;23.46;30.42
41513;BME280;27244;59.940;30.280;2023-01-28T09:05:18;101999.00;;;23.41;31.12
41513;BME280;27244;59.940;30.280;2023-01-28T09:07:45;102006.25;;;23.45;30.70
41513;BME280;27244;59.940;30.280;2023-01-28T09:10:12;101993.38;;;23.41;30.62
41513;BME280;27244;59.940;30.280;2023-01-28T09:12:40;101992.22;;;23.42;30.61
41513;BME280;27244;59.940;30.280;2023-01-28T09:15:10;101987.72;;;23.48;30.66
41513;BME280;27244;59.940;30.280;2023-01-28T09:17:37;101994.59;;;23.47;30.70
41513;BME280;27244;59.940;30.280;2023-01-28T09:20:05;101988.97;;;23.47;30.93
41513;BME280;27244;59.940;30.280;2023-01-28T09:22:33;101983.34;;;23.47;30.68
41513;BME280;27244;59.940;30.280;2023-01-28T09:25:00;101978.88;;;23.49;30.57
41513;BME280;27244;59.940;30.280;2023-01-28T09:27:30;101980.88;;;23.49;30.78
41513;BME280;27244;59.940;30.280;2023-01-28T09:29:57;101976.88;;;23.50;30.89
41513;BME280;27244;59.940;30.280;2023-01-28T09:32:25;101965.63;;;23.46;30.73
41513;BME280;27244;59.940;30.280;2023-01-28T09:34:52;101975.25;;;23.49;30.79
41513;BME280;27244;59.940;30.280;2023-01-28T09:37:19;101971.22;;;23.50;30.95
41513;BME280;27244;59.940;30.280;2023-01-28T09:39:46;101969.25;;;23.47;30.91
41513;BME280;27244;59.940;30.280;2023-01-28T09:42:28;101957.91;;;23.58;30.64
41513;BME280;27244;59.940;30.280;2023-01-28T09:45:02;101951.06;;;23.55;30.77
41513;BME280;27244;59.940;30.280;2023-01-28T09:47:37;101953.88;;;23.55;30.74
41513;BME280;27244;59.940;30.280;2023-01-28T09:50:08;101945.09;;;23.49;30.85
41513;BME280;27244;59.940;30.280;2023-01-28T09:52:38;101945.47;;;23.51;30.87
41513;BME280;27244;59.940;30.280;2023-01-28T09:55:14;101944.66;;;23.55;30.62
41513;BME280;27244;59.940;30.280;2023-01-28T09:57:47;101935.41;;;23.54;31.03
41513;BME280;27244;59.940;30.280;2023-01-28T10:00:16;101932.47;;;23.68;30.18
41513;BME280;27244;59.940;30.280;2023-01-28T10:02:56;101915.22;;;23.59;30.66
41513;BME280;27244;59.940;30.280;2023-01-28T10:05:32;101922.50;;;23.57;30.99
41513;BME280;27244;59.940;30.280;2023-01-28T10:08:15;101918.47;;;23.58;30.82
41513;BME280;27244;59.940;30.280;2023-01-28T10:10:47;101917.25;;;23.55;31.13
41513;BME280;27244;59.940;30.280;2023-01-28T10:13:25;101908.41;;;23.57;30.90
41513;BME280;27244;59.940;30.280;2023-01-28T10:16:07;101909.22;;;23.57;30.86
41513;BME280;27244;59.940;30.280;2023-01-28T10:18:42;101907.59;;;23.56;30.93
41513;BME280;27244;59.940;30.280;2023-01-28T10:21:14;101905.19;;;23.58;31.06
41513;BME280;27244;59.940;30.280;2023-01-28T10:23:49;101903.94;;;23.59;31.02
41513;BME280;27244;59.940;30.280;2023-01-28T10:26:32;101889.06;;;23.59;30.85
41513;BME280;27244;59.940;30.280;2023-01-28T10:29:04;101876.28;;;23.50;30.93
41513;BME280;27244;59.940;30.280;2023-01-28T10:31:38;101874.56;;;23.60;31.16
41513;BME280;27244;59.940;30.280;2023-01-28T10:34:10;101859.72;;;23.56;31.12
41513;BME280;27244;59.940;30.280;2023-01-28T10:36:37;101858.50;;;23.57;31.12
41513;BME280;27244;59.940;30.280;2023-01-28T10:39:04;101851.72;;;23.55;31.13
41513;BME280;27244;59.940;30.280;2023-01-28T10:41:33;101852.47;;;23.55;31.12
41513;BME280;27244;59.940;30.280;2023-01-28T10:44:00;101858.88;;;23.59;31.14
41513;BME280;27244;59.940;30.280;2023-01-28T10:46:29;101868.53;;;23.62;31.20
41513;BME280;27244;59.940;30.280;2023-01-28T10:49:03;101865.69;;;23.65;31.08
41513;BME280;27244;59.940;30.280;2023-01-28T10:51:35;101852.88;;;23.57;31.24
41513;BME280;27244;59.940;30.280;2023-01-28T10:54:13;101852.03;;;23.60;31.10
41513;BME280;27244;59.940;30.280;2023-01-28T10:56:44;101853.66;;;23.61;31.17
41513;BME280;27244;59.940;30.280;2023-01-28T10:59:19;101853.19;;;23.66;30.92
41513;BME280;27244;59.940;30.280;2023-01-28T11:01:49;101848.81;;;23.62;31.11
41513;BME280;27244;59.940;30.280;2023-01-28T11:04:21;101849.63;;;23.62;31.11
41513;BME280;27244;59.940;30.280;2023-01-28T11:06:56;101848.44;;;23.60;31.05
41513;BME280;27244;59.940;30.280;2023-01-28T11:09:25;101851.19;;;23.63;31.12
41513;BME280;27244;59.940;30.280;2023-01-28T11:11:53;101846.81;;;23.62;31.11
41513;BME280;27244;59.940;30.280;2023-01-28T11:14:22;101835.91;;;23.64;31.04
41513;BME280;27244;59.940;30.280;2023-01-28T11:16:50;101835.94;;;23.61;30.95
41513;BME280;27244;59.940;30.280;2023-01-28T11:19:18;101819.09;;;23.57;30.92
41513;BME280;27244;59.940;30.280;2023-01-28T11:21:54;101819.00;;;23.64;30.89
41513;BME280;27244;59.940;30.280;2023-01-28T11:24:25;101818.19;;;23.64;31.11
41513;BME280;27244;59.940;30.280;2023-01-28T11:26:54;101803.28;;;23.67;31.12
41513;BME280;27244;59.940;30.280;2023-01-28T11:29:25;101797.66;;;23.67;31.40
41513;BME280;27244;59.940;30.280;2023-01-28T11:31:54;101800.06;;;23.68;31.55
41513;BME280;27244;59.940;30.280;2023-01-28T11:34:25;101786.88;;;23.58;31.38
41513;BME280;27244;59.940;30.280;2023-01-28T11:37:00;101779.94;;;23.66;31.46
41513;BME280;27244;59.940;30.280;2023-01-28T11:39:28;101770.75;;;23.62;31.46
41513;BME280;27244;59.940;30.280;2023-01-28T11:42:05;101753.09;;;23.58;31.41
41513;BME280;27244;59.940;30.280;2023-01-28T11:44:37;101755.47;;;23.60;31.53
41513;BME280;27244;59.940;30.280;2023-01-28T11:47:15;101759.44;;;23.66;31.60
41513;BME280;27244;59.940;30.280;2023-01-28T11:49:55;101750.56;;;23.67;31.40
41513;BME280;27244;59.940;30.280;2023-01-28T11:52:38;101736.94;;;23.62;31.70
41513;BME280;27244;59.940;30.280;2023-01-28T11:55:21;101730.88;;;23.64;31.67
41513;BME280;27244;59.940;30.280;2023-01-28T11:57:58;101739.34;;;23.64;31.80
41513;BME280;27244;59.940;30.280;2023-01-28T12:00:35;101726.50;;;23.59;31.66
41513;BME280;27244;59.940;30.280;2023-01-28T12:06:31;101729.28;;;23.63;32.25
41513;BME280;27244;59.940;30.280;2023-01-28T12:09:13;101715.19;;;23.63;31.97
41513;BME280;27244;59.940;30.280;2023-01-28T12:11:54;101719.25;;;23.62;32.41
41513;BME280;27244;59.940;30.280;2023-01-28T12:14:56;101712.81;;;23.61;32.16
41513;BME280;27244;59.940;30.280;2023-01-28T12:17:37;101708.03;;;23.58;32.30
41513;BME280;27244;59.940;30.280;2023-01-28T12:20:17;101695.19;;;23.53;32.42
41513;BME280;27244;59.940;30.280;2023-01-28T12:22:58;101694.72;;;23.59;32.62
41513;BME280;27244;59.940;30.280;2023-01-28T12:25:48;101698.72;;;23.61;32.52
41513;BME280;27244;59.940;30.280;2023-01-28T12:28:25;101681.53;;;23.52;33.24
41513;BME280;27244;59.940;30.280;2023-01-28T12:34:06;101684.66;;;23.61;32.81
41513;BME280;27244;59.940;30.280;2023-01-28T12:36:47;101680.63;;;23.59;33.58
41513;BME280;27244;59.940;30.280;2023-01-28T12:39:26;101681.44;;;23.59;33.68
41513;BME280;27244;59.940;30.280;2023-01-28T12:42:06;101659.75;;;23.56;33.42
41513;BME280;27244;59.940;30.280;2023-01-28T12:44:39;101664.97;;;23.58;33.58
41513;BME280;27244;59.940;30.280;2023-01-28T12:47:12;101655.28;;;23.59;33.36
41513;BME280;27244;59.940;30.280;2023-01-28T12:49:43;101651.78;;;23.51;33.31
41513;BME280;27244;59.940;30.280;2023-01-28T12:52:15;101661.75;;;23.56;33.26
41513;BME280;27244;59.940;30.280;2023-01-28T12:54:52;101658.09;;;23.62;33.18
41513;BME280;27244;59.940;30.280;2023-01-28T12:57:27;101650.91;;;23.58;33.11
41513;BME280;27244;59.940;30.280;2023-01-28T13:00:04;101652.06;;;23.60;32.93
41513;BME280;27244;59.940;30.280;2023-01-28T13:02:34;101645.25;;;23.58;32.94
41513;BME280;27244;59.940;30.280;2023-01-28T13:05:08;101642.00;;;23.59;32.89
41513;BME280;27244;59.940;30.280;2023-01-28T13:07:41;101636.00;;;23.57;32.87
41513;BME280;27244;59.940;30.280;2023-01-28T13:10:17;101643.63;;;23.60;32.88
41513;BME280;27244;59.940;30.280;2023-01-28T13:12:47;101631.59;;;23.56;32.81
41513;BME280;27244;59.940;30.280;2023-01-28T13:15:16;101621.94;;;23.57;32.87